My Meet Scores
Iga Kozlowski, Professional Gymnastics Center - MyMeetScores.com
Top100 | Top Teams | Upcoming Meets | Completed Meets | Latest | Add Scores | Help| Support | Bookmark and Share

Iga Kozlowski, Professional Gymnastics Center
Personal Bests
LevelVault BarsBeamFloorAA
39.5509.500 9.1259.60037.600
49.5509.000 9.5759.80037.325
59.6759.375 9.3259.60037.725
Scores on America's Top 100as of 07.27.2021
Year Level Vault Bars Beam Floor AA
2020 49.800
2021 59.675

Click here to view our exclusive Top 100 Collection
Meet Scores
Date Meet Team Session Level Division Vault Bars Beam Floor AA
2021-03-18 Level 5 & Xcel Gold State Professional Gymnastics Center 1 5 Jr A 9.500 2 9.375 4T 9.325 6 9.525 1 37.725 1
2021-02-27 Yurchenko Invitational Professional Gymnastics Center 1 5 Junior A 9.675 2 9.225 7 9.000 4 9.475 2 37.375 3
2021-02-12 Super Girl Invite Professional Gymnastics Center 3 5 Younger 9.550 1 9.200 5 8.700 7 9.500 2 36.950 5
2021-01-14 2021 Bravo Classic Professional Gymnastics Center 17 5 Child 8.700 7 9.275 1 8.775 10 9.575 1 36.325 3
2020-12-18 Aspire Classic Professional Gymnastics Center 12 5 Younger 9.150 7 9.200 2 7.500 8 9.600 1T 35.450 7
2020-03-06 Illinois Level 4 State Championships Bartlett Gymnastics Center 1 4 Ch B 9.450 1 8.700 21 9.350 7T 9.550 2 37.050 3
2020-02-28 MEGA Spring Invite 2020 Bartlett Gymnastics Center 4 4 Child 9.225 3 8.825 16 9.200 5 9.800 1 37.050 2
2020-02-14 Midwest Open Bartlett Gymnastics Center 06B 4 Junior A 9.050 3 8.850 12T 8.675 12 9.600 1 36.175 8T
2020-02-07 IGI Chicago Style Meet Bartlett Gymnastics Center 122 4 A 9.550 1 8.800 6 9.025 2 9.450 1 36.825 3
2020-01-24 Uga Invitational Bartlett Gymnastics Center B3 4 Ch A 9.350 1 9.000 8 9.575 2 9.400 1 37.325 1
2020-01-10 Leenda's Island Adventure Bartlett Gymnastics Center PG5 4 8 & Under 8.950 3 8.575 7 9.250 1 9.450 1 36.225 3
2019-03-08 2019 Illinois Level 3 State Championship Legacy Elite Gymnastics LLC 5 3 Ch B 9.550 2T 9.500 6 8.950 7 9.600 3 37.600 2
2019-02-23 Kinetic Classic 2019 Legacy Elite Gymnastics LLC 1 3 Younger 8.900 20T 9.375 5 9.075 13 9.225 4 36.575 6
2019-02-15 Big ClassicBIG CLASSIC Legacy Elite Gymnastics LLC 1A 3 Child A 9.350 1 8.875 6 9.125 3 8.300 8 35.650 4
2019-01-25 King Arthur Invitational Legacy Elite Gymnastics LLC 8 3 JR A 9.500 1 8.750 9 9.050 5 8.150 13 35.450 8
2019-01-11 Legacy Elite Classic Legacy Elite Gymnastics LLC 3B 3 JrA 9.400 4 9.125 3 8.725 2 9.200 1 36.450 3
2019-01-04 Leenda's Island Adventure Legacy Elite Gymnastics LLC G02 3 7 and Unde 9.250 4T 8.525 5T 8.650 8 9.375 1 35.800 4
2018-12-14 Hawaiian Pineapple Classic Legacy Elite Gymnastics LLC 2A 3 Ages7U 9.100 5 7.800 14 8.600 3 9.475 1 34.975 2
2018-03-09 Lucky Invitational Legacy Elite Gymnastics LLC B02 3 Jr A 9.100 13 7.800 19 8.100 17 8.650 14T 33.650 17
2018-02-16 Big Classic Legacy Elite Gymnastics LLC 8B 3 Child A 8.800 10T 7.850 10T 8.075 10T 8.925 7 33.650 11
2018-01-26 2018 UGA Classic Legacy Elite Gymnastics LLC A8 3 Jr A 9.000 10T 7.300 17 8.400 13 7.950 16 32.650 16
2018-01-12 Legacy Elite Winter Classic Legacy Elite Gymnastics LLC 2 3 ChildA 9.150 9T 6.550 14 7.350 12 8.250 12 31.300 12
Get your scores on
a t-shirt, pin, or hoodie